Anna Maria, Florida
Current Conditions -  °F | °C
As of 3:53 AM on Wednesday 26 Nov 2014 (Local Time) from KSRQ Reporting Station
Light Rain Light Rain  
Wind Chill: 62°   Ceiling: 1100
Heat Index: 62°   Visibility: 10mi
Dew Point: 60°   Wind: 16mph
Humidity: 93%   Direction: 330°NNW
Pressure: 29.91"   Gusts: 29mph
Location:  27.53°N, 82.73°W
Report Text: KSRQ 260853Z AUTO 33014G25KT 10SM -RA FEW006 BKN011 OVC025 17/16 A2991 RMK AO2 SLP129 P0006 60010 T01670156 51015
Loading
Personal Weather Stations






























Interactive Weather Map New forecast layout! Learn more

10-Day Weather Forecast

Advertisements
Track Severe Weather on mobile